To NAV CANADA Home Page Login to a new session Search on AWWS site Feedback and Comments Disclaimer Vers la page française équivalente Tips FAQ What's new on the site To the Forecasts and Observations / NOTAM section To "File a Flight Plan" website Publications and other links Update of the User's profile FIC Telephone Numbers My Weather Data Folder Route Weather Data Regional Weather Data Local Weather Data To the Forecasts and Observations / NOTAM section
Request Generated 05/28/2015 at 13:42:16 UTC . Weather information available at that time is displayed.

METAR/TAF

GOOSE BAY/NL    

SPECI CYYR 281322Z 28006KT 15SM BKN023 BKN035 OVC060 15/13 A2965 RMK SC6SC1SC2 SLP043=
METAR CYYR 281300Z 27007KT 15SM -SHRA FEW007 BKN023 BKN035 OVC050 15/13 A2964 RMK SF1SC6SC1SC2 SLP037=
SPECI CYYR 281249Z 26009KT 12SM -SHRA FEW007 BKN023 BKN035 OVC050 15/14 A2963 RMK SF1SC5SC1SC2 SLP035=
SPECI CYYR 281238Z 26012G18KT 8SM -SHRA BKN023 OVC035 15/13 A2963 RMK SC6SC2 SLP034=
SPECI CYYR 281218Z CCA 24015KT 5SM -SHRA BR BKN025 OVC035 15/13 A2962 RMK SC6SC2 SLP030=
SPECI CYYR 281218Z 24015KT 5SM -SHRA BR BKN025 OVC035 15/03 A2962 RMK SC6SC2 SLP030=
SPECI CYYR 281208Z 24012KT 15SM -SHRA FEW022 BKN030 OVC045 15/13 A2961 RMK SC2SC5SC2 VIS LWR N SLP029=
METAR CYYR 281200Z 24009KT 15SM SCT022 BKN028 OVC045 15/12 A2961 RMK SC4SC3SC1 SLP027=
SPECI CYYR 281138Z 20006KT 15SM VCSH BKN024 OVC045 14/12 A2960 RMK SC7SC1 VIS LWR W SLP025=
METAR CYYR 281100Z 20008KT 15SM BKN029 OVC040 14/11 A2959 RMK SC6SC2 SLP021=

TAF AMD CYYR 281228Z 2812/2912 24015KT P6SM SCT025 BKN050 TEMPO
2812/2815 5SM -SHRA BR BKN020
BECMG 2812/2814 30012G22KT
FM281500 30012G22KT P6SM FEW025 SCT050 TEMPO 2815/2818 BKN020
FM282100 30012KT P6SM SKC
RMK NXT FCST BY 281800Z=
Your time UTC time
Weather data provided by Environment Canada and NAV CANADA